ASL850 LYBE-HKJK
Flight info
| Callsign | ASL850 |
|---|---|
| Flight time | N/A |
| Altitude | 37000 |
| Route | TPL DCT KOGAT DCT BITLA UN731 YNN UL604 SALUN L604 ALTAT/N0473F390 L604 MEVDA P557 NUBAR P309 AVONO/N0472F400 A727 ANTAX/N0471F410 UA727 KAMAS KAMAS2D |
| Aircraft | MD11/H-SDE1E2E3FGHIJ2J3J4J5M1RWXY/LB1D1 |
Departure
| Time | 2026-05-01 10:03 |
|---|---|
| Airport | Belgrade Nikola Tesla Airport (LYBE) |
Arrival
| Time | N/A |
|---|---|
| Airport | Jomo Kenyatta International Airport (HKJK) |
| Time | Latitude | Longitude | Altitude | Speed | Heading |
|---|---|---|---|---|---|
| 2026-05-01 09:36 | 44.82282 | 20.28812 | 314 ft | 0 kts | 212° |
| 2026-05-01 09:52 | 44.82290 | 20.28819 | 333 ft | 3 kts | 212° |
| 2026-05-01 09:52 | 44.82308 | 20.28834 | 342 ft | 3 kts | 212° |
| 2026-05-01 09:53 | 44.82326 | 20.28850 | 313 ft | 3 kts | 217° |
| 2026-05-01 09:53 | 44.82337 | 20.28872 | 312 ft | 3 kts | 255° |
| 2026-05-01 09:53 | 44.82340 | 20.28900 | 313 ft | 3 kts | 279° |
| 2026-05-01 09:53 | 44.82338 | 20.28910 | 313 ft | 0 kts | 287° |
| 2026-05-01 09:58 | 44.82341 | 20.28901 | 313 ft | 3 kts | 290° |
| 2026-05-01 09:58 | 44.82356 | 20.28852 | 316 ft | 6 kts | 291° |
| 2026-05-01 09:58 | 44.82366 | 20.28796 | 315 ft | 8 kts | 282° |
| 2026-05-01 09:59 | 44.82389 | 20.28713 | 315 ft | 11 kts | 298° |
| 2026-05-01 09:59 | 44.82435 | 20.28603 | 315 ft | 15 kts | 301° |
| 2026-05-01 09:59 | 44.82465 | 20.28554 | 315 ft | 2 kts | 340° |
| 2026-05-01 09:59 | 44.82483 | 20.28561 | 317 ft | 3 kts | 29° |
| 2026-05-01 10:00 | 44.82493 | 20.28579 | 314 ft | 2 kts | 66° |
| 2026-05-01 10:00 | 44.82508 | 20.28637 | 314 ft | 9 kts | 71° |
| 2026-05-01 10:00 | 44.82528 | 20.28721 | 315 ft | 9 kts | 71° |
| 2026-05-01 10:00 | 44.82545 | 20.28802 | 315 ft | 8 kts | 74° |
| 2026-05-01 10:01 | 44.82561 | 20.28874 | 316 ft | 6 kts | 68° |
| 2026-05-01 10:01 | 44.82581 | 20.28925 | 316 ft | 8 kts | 60° |
| 2026-05-01 10:01 | 44.82609 | 20.29005 | 314 ft | 7 kts | 73° |
| 2026-05-01 10:01 | 44.82624 | 20.29092 | 315 ft | 10 kts | 83° |
| 2026-05-01 10:02 | 44.82603 | 20.29194 | 314 ft | 13 kts | 118° |
| 2026-05-01 10:02 | 44.82507 | 20.29420 | 316 ft | 59 kts | 121° |
| 2026-05-01 10:02 | 44.82117 | 20.30290 | 313 ft | 148 kts | 120° |
| 2026-05-01 10:02 | 44.81463 | 20.31761 | 538 ft | 193 kts | 121° |
| 2026-05-01 10:03 | 44.80735 | 20.33415 | 1391 ft | 203 kts | 120° |
| 2026-05-01 10:03 | 44.80026 | 20.35172 | 2275 ft | 209 kts | 120° |
| 2026-05-01 10:03 | 44.79253 | 20.36934 | 3144 ft | 214 kts | 121° |
| 2026-05-01 10:03 | 44.78440 | 20.38742 | 3897 ft | 227 kts | 120° |
| 2026-05-01 10:04 | 44.77536 | 20.40748 | 4064 ft | 257 kts | 120° |
| 2026-05-01 10:04 | 44.76575 | 20.42904 | 4692 ft | 261 kts | 120° |
| 2026-05-01 10:04 | 44.75609 | 20.45089 | 5436 ft | 263 kts | 120° |
| 2026-05-01 10:04 | 44.74633 | 20.47274 | 6549 ft | 265 kts | 121° |
| 2026-05-01 10:05 | 44.73643 | 20.49485 | 7574 ft | 269 kts | 120° |
| 2026-05-01 10:05 | 44.72642 | 20.51724 | 8566 ft | 272 kts | 119° |
| 2026-05-01 10:05 | 44.71958 | 20.53254 | 9249 ft | 274 kts | 118° |
| 2026-05-01 10:05 | 44.70938 | 20.55538 | 10236 ft | 278 kts | 117° |
| 2026-05-01 10:06 | 44.69918 | 20.57825 | 11103 ft | 281 kts | 117° |
| 2026-05-01 10:06 | 44.68852 | 20.60144 | 11955 ft | 287 kts | 122° |
| 2026-05-01 10:06 | 44.67375 | 20.62105 | 12684 ft | 306 kts | 144° |
| 2026-05-01 10:06 | 44.65299 | 20.63285 | 12906 ft | 339 kts | 163° |
| 2026-05-01 10:07 | 44.62945 | 20.63868 | 13682 ft | 347 kts | 169° |
| 2026-05-01 10:07 | 44.60530 | 20.64311 | 14524 ft | 353 kts | 170° |
| 2026-05-01 10:07 | 44.58044 | 20.64766 | 14998 ft | 367 kts | 169° |
| 2026-05-01 10:07 | 44.55503 | 20.65263 | 15745 ft | 371 kts | 169° |
| 2026-05-01 10:08 | 44.50340 | 20.66357 | 17268 ft | 379 kts | 169° |
| 2026-05-01 10:08 | 44.47724 | 20.66937 | 18005 ft | 384 kts | 169° |
| 2026-05-01 10:08 | 44.45070 | 20.67534 | 18732 ft | 387 kts | 169° |
| 2026-05-01 10:09 | 44.42397 | 20.68144 | 19251 ft | 391 kts | 169° |
| 2026-05-01 10:09 | 44.39702 | 20.68751 | 19702 ft | 393 kts | 169° |
| 2026-05-01 10:09 | 44.36993 | 20.69378 | 20121 ft | 396 kts | 169° |
| 2026-05-01 10:09 | 44.34263 | 20.69973 | 20571 ft | 398 kts | 170° |
| 2026-05-01 10:10 | 44.31521 | 20.70592 | 21039 ft | 400 kts | 169° |
| 2026-05-01 10:10 | 44.28764 | 20.71224 | 21681 ft | 403 kts | 170° |
| 2026-05-01 10:10 | 44.23183 | 20.72479 | 22865 ft | 409 kts | 170° |
| 2026-05-01 10:11 | 44.20359 | 20.73112 | 23417 ft | 412 kts | 170° |
| 2026-05-01 10:11 | 44.17516 | 20.73749 | 23943 ft | 416 kts | 170° |
| 2026-05-01 10:11 | 44.14650 | 20.74369 | 24381 ft | 419 kts | 171° |
| 2026-05-01 10:11 | 44.11750 | 20.74898 | 24836 ft | 422 kts | 172° |
| 2026-05-01 10:12 | 44.08825 | 20.75375 | 25286 ft | 425 kts | 173° |
| 2026-05-01 10:12 | 44.05878 | 20.75833 | 25730 ft | 428 kts | 173° |
| 2026-05-01 10:12 | 43.99971 | 20.76746 | 26699 ft | 432 kts | 173° |
| 2026-05-01 10:13 | 43.96985 | 20.77212 | 27259 ft | 432 kts | 173° |
| 2026-05-01 10:13 | 43.93999 | 20.77680 | 27758 ft | 434 kts | 173° |
| 2026-05-01 10:13 | 43.90964 | 20.78159 | 27968 ft | 443 kts | 173° |
| 2026-05-01 10:14 | 43.84838 | 20.79124 | 29152 ft | 442 kts | 173° |
| 2026-05-01 10:14 | 43.81786 | 20.79605 | 29793 ft | 440 kts | 173° |
| 2026-05-01 10:14 | 43.78749 | 20.80083 | 30397 ft | 439 kts | 173° |
| 2026-05-01 10:14 | 43.75715 | 20.80559 | 30857 ft | 439 kts | 173° |
| 2026-05-01 10:15 | 43.72680 | 20.81036 | 31268 ft | 439 kts | 173° |
| 2026-05-01 10:15 | 43.69643 | 20.81512 | 31675 ft | 440 kts | 173° |
| 2026-05-01 10:15 | 43.66604 | 20.81989 | 32057 ft | 440 kts | 173° |
| 2026-05-01 10:15 | 43.63561 | 20.82465 | 32432 ft | 440 kts | 173° |
| 2026-05-01 10:16 | 43.60510 | 20.82897 | 32573 ft | 441 kts | 173° |
| 2026-05-01 10:16 | 43.57466 | 20.83330 | 32740 ft | 440 kts | 173° |
| 2026-05-01 10:16 | 43.51388 | 20.84273 | 33002 ft | 439 kts | 173° |
| 2026-05-01 10:17 | 43.48352 | 20.84759 | 33140 ft | 439 kts | 173° |
| 2026-05-01 10:17 | 43.42282 | 20.85745 | 33406 ft | 438 kts | 174° |
| 2026-05-01 10:17 | 43.39258 | 20.86211 | 33542 ft | 437 kts | 173° |
| 2026-05-01 10:18 | 43.33227 | 20.87132 | 33806 ft | 435 kts | 174° |
| 2026-05-01 10:18 | 43.30223 | 20.87536 | 33938 ft | 432 kts | 174° |
| 2026-05-01 10:18 | 43.27236 | 20.87987 | 34072 ft | 431 kts | 173° |
| 2026-05-01 10:19 | 43.24260 | 20.88478 | 34212 ft | 430 kts | 173° |
| 2026-05-01 10:19 | 43.21293 | 20.88964 | 34337 ft | 428 kts | 173° |
| 2026-05-01 10:19 | 43.18386 | 20.89491 | 34454 ft | 426 kts | 173° |
| 2026-05-01 10:20 | 43.12497 | 20.90403 | 34660 ft | 420 kts | 175° |
| 2026-05-01 10:20 | 43.09598 | 20.90816 | 34786 ft | 417 kts | 176° |
| 2026-05-01 10:20 | 43.06721 | 20.91221 | 34892 ft | 414 kts | 175° |
| 2026-05-01 10:20 | 43.03870 | 20.91640 | 34997 ft | 410 kts | 177° |
| 2026-05-01 10:21 | 43.01078 | 20.92016 | 35120 ft | 407 kts | 176° |
| 2026-05-01 10:21 | 42.95461 | 20.92893 | 35348 ft | 402 kts | 175° |
| 2026-05-01 10:22 | 42.87049 | 20.94270 | 34941 ft | 416 kts | 175° |
| 2026-05-01 10:22 | 42.81292 | 20.95159 | 35118 ft | 412 kts | 176° |
| 2026-05-01 10:23 | 42.78453 | 20.95588 | 35236 ft | 410 kts | 175° |
| 2026-05-01 10:23 | 42.69945 | 20.96873 | 35288 ft | 411 kts | 175° |
| 2026-05-01 10:24 | 42.58579 | 20.99080 | 35292 ft | 414 kts | 171° |
| 2026-05-01 10:25 | 42.47217 | 21.01751 | 35290 ft | 416 kts | 173° |
| 2026-05-01 10:26 | 42.41492 | 21.02971 | 35288 ft | 418 kts | 174° |
| 2026-05-01 10:27 | 42.29960 | 21.05492 | 35273 ft | 423 kts | 173° |
| 2026-05-01 10:28 | 42.21226 | 21.07402 | 35258 ft | 426 kts | 174° |
| 2026-05-01 10:28 | 42.12418 | 21.09328 | 35257 ft | 429 kts | 174° |
| 2026-05-01 10:29 | 42.03534 | 21.11259 | 35243 ft | 433 kts | 174° |
| 2026-05-01 10:30 | 41.91536 | 21.13860 | 35245 ft | 440 kts | 174° |
| 2026-05-01 10:31 | 41.79398 | 21.16471 | 35238 ft | 447 kts | 175° |
| 2026-05-01 10:32 | 41.70118 | 21.18460 | 35233 ft | 451 kts | 175° |
| 2026-05-01 10:33 | 41.57715 | 21.21117 | 35227 ft | 452 kts | 175° |
| 2026-05-01 10:34 | 41.48419 | 21.23109 | 35437 ft | 449 kts | 175° |
| 2026-05-01 10:34 | 41.45333 | 21.23762 | 35554 ft | 448 kts | 175° |
| 2026-05-01 10:34 | 41.42265 | 21.24417 | 35648 ft | 446 kts | 175° |
| 2026-05-01 10:35 | 41.36164 | 21.25721 | 35890 ft | 442 kts | 176° |
| 2026-05-01 10:35 | 41.33133 | 21.26364 | 36010 ft | 440 kts | 175° |
| 2026-05-01 10:35 | 41.30120 | 21.27003 | 36127 ft | 437 kts | 176° |
| 2026-05-01 10:35 | 41.27125 | 21.27641 | 36258 ft | 435 kts | 175° |
| 2026-05-01 10:36 | 41.21193 | 21.28900 | 36479 ft | 430 kts | 176° |
| 2026-05-01 10:36 | 41.18248 | 21.29525 | 36601 ft | 427 kts | 176° |
| 2026-05-01 10:36 | 41.15324 | 21.30145 | 36723 ft | 424 kts | 176° |
| 2026-05-01 10:37 | 41.12424 | 21.30757 | 36831 ft | 421 kts | 176° |
| 2026-05-01 10:37 | 41.06702 | 21.31965 | 37153 ft | 411 kts | 176° |
| 2026-05-01 10:37 | 41.03889 | 21.32559 | 37207 ft | 408 kts | 176° |
| 2026-05-01 10:38 | 40.98299 | 21.33754 | 37203 ft | 407 kts | 176° |
| 2026-05-01 10:38 | 40.92671 | 21.34926 | 37217 ft | 412 kts | 177° |
| 2026-05-01 10:39 | 40.86971 | 21.35713 | 37218 ft | 409 kts | 188° |
| 2026-05-01 10:39 | 40.81331 | 21.34845 | 37221 ft | 410 kts | 195° |
| 2026-05-01 10:40 | 40.75646 | 21.33582 | 37217 ft | 419 kts | 195° |
| 2026-05-01 10:40 | 40.69816 | 21.32354 | 37213 ft | 429 kts | 195° |
| 2026-05-01 10:41 | 40.63845 | 21.31161 | 37209 ft | 437 kts | 194° |
| 2026-05-01 10:42 | 40.54863 | 21.29410 | 37199 ft | 436 kts | 194° |
| 2026-05-01 10:42 | 40.48857 | 21.28238 | 37201 ft | 436 kts | 194° |
| 2026-05-01 10:43 | 40.42936 | 21.26500 | 37195 ft | 436 kts | 207° |
| 2026-05-01 10:43 | 40.37429 | 21.23255 | 37188 ft | 432 kts | 212° |
| 2026-05-01 10:44 | 40.32046 | 21.19775 | 37196 ft | 432 kts | 212° |
| 2026-05-01 10:44 | 40.26624 | 21.16363 | 37192 ft | 432 kts | 212° |
| 2026-05-01 10:45 | 40.21176 | 21.13007 | 37157 ft | 433 kts | 211° |
| 2026-05-01 10:45 | 40.15733 | 21.09678 | 37178 ft | 431 kts | 212° |
| 2026-05-01 10:46 | 40.10295 | 21.06358 | 37175 ft | 431 kts | 212° |
| 2026-05-01 10:46 | 40.04858 | 21.03043 | 37170 ft | 431 kts | 212° |
| 2026-05-01 10:47 | 39.99433 | 20.99744 | 37128 ft | 429 kts | 212° |
| 2026-05-01 10:47 | 39.94033 | 20.96463 | 37128 ft | 428 kts | 212° |
| 2026-05-01 10:48 | 39.88637 | 20.93189 | 37119 ft | 428 kts | 212° |
| 2026-05-01 10:48 | 39.83241 | 20.89921 | 37094 ft | 427 kts | 212° |
| 2026-05-01 10:49 | 39.77794 | 20.86820 | 37100 ft | 431 kts | 207° |
| 2026-05-01 10:49 | 39.71857 | 20.85113 | 37098 ft | 447 kts | 191° |
| 2026-05-01 10:50 | 39.65549 | 20.85749 | 37102 ft | 465 kts | 174° |
| 2026-05-01 10:50 | 39.59399 | 20.88783 | 37104 ft | 481 kts | 160° |
| 2026-05-01 10:51 | 39.53507 | 20.92965 | 37106 ft | 485 kts | 158° |
| 2026-05-01 10:51 | 39.47618 | 20.97204 | 37103 ft | 484 kts | 159° |
| 2026-05-01 10:52 | 39.41779 | 21.01375 | 37129 ft | 480 kts | 156° |
| 2026-05-01 10:52 | 39.36056 | 21.05664 | 37101 ft | 468 kts | 161° |
| 2026-05-01 10:53 | 39.30204 | 21.09320 | 37103 ft | 469 kts | 162° |
| 2026-05-01 10:53 | 39.24361 | 21.13116 | 37102 ft | 472 kts | 160° |
| 2026-05-01 10:54 | 39.18533 | 21.17047 | 37108 ft | 473 kts | 160° |
| 2026-05-01 10:54 | 39.13655 | 21.20359 | 37104 ft | 473 kts | 160° |
| 2026-05-01 10:55 | 39.07868 | 21.24275 | 37099 ft | 473 kts | 160° |
| 2026-05-01 10:55 | 39.02039 | 21.28218 | 37116 ft | 473 kts | 160° |
| 2026-05-01 10:56 | 38.96209 | 21.32143 | 37104 ft | 473 kts | 160° |
| 2026-05-01 10:56 | 38.90371 | 21.36066 | 37082 ft | 474 kts | 161° |
| 2026-05-01 10:57 | 38.84522 | 21.39989 | 37089 ft | 475 kts | 161° |
| 2026-05-01 10:57 | 38.78688 | 21.43892 | 37116 ft | 472 kts | 161° |
| 2026-05-01 10:58 | 38.72847 | 21.47792 | 37116 ft | 473 kts | 162° |
| 2026-05-01 10:58 | 38.66982 | 21.51676 | 37103 ft | 475 kts | 162° |
| 2026-05-01 10:59 | 38.61106 | 21.55559 | 37117 ft | 476 kts | 162° |
| 2026-05-01 10:59 | 38.55143 | 21.59468 | 37117 ft | 487 kts | 161° |
| 2026-05-01 11:00 | 38.49116 | 21.63471 | 37105 ft | 488 kts | 161° |
| 2026-05-01 11:00 | 38.43085 | 21.67472 | 37105 ft | 489 kts | 161° |
| 2026-05-01 11:01 | 38.37045 | 21.71456 | 37109 ft | 488 kts | 162° |
| 2026-05-01 11:01 | 38.31014 | 21.75421 | 37104 ft | 488 kts | 162° |
| 2026-05-01 11:02 | 38.24981 | 21.79379 | 37091 ft | 488 kts | 162° |
| 2026-05-01 11:02 | 38.18948 | 21.83329 | 37082 ft | 488 kts | 162° |
| 2026-05-01 11:03 | 38.12914 | 21.87274 | 37090 ft | 487 kts | 162° |
| 2026-05-01 11:03 | 38.06890 | 21.91205 | 37098 ft | 486 kts | 162° |
| 2026-05-01 11:04 | 38.00871 | 21.95125 | 37102 ft | 486 kts | 162° |
| 2026-05-01 11:04 | 37.94849 | 21.99028 | 37099 ft | 486 kts | 162° |
| 2026-05-01 11:05 | 37.88860 | 22.02894 | 37081 ft | 486 kts | 162° |
| 2026-05-01 11:05 | 37.82844 | 22.06784 | 37110 ft | 486 kts | 162° |
| 2026-05-01 11:06 | 37.76829 | 22.10672 | 37109 ft | 485 kts | 162° |
| 2026-05-01 11:06 | 37.70820 | 22.14549 | 37091 ft | 485 kts | 162° |
| 2026-05-01 11:07 | 37.61798 | 22.20357 | 37107 ft | 485 kts | 162° |
| 2026-05-01 11:07 | 37.55786 | 22.24221 | 37114 ft | 485 kts | 162° |
| 2026-05-01 11:08 | 37.49773 | 22.28077 | 37105 ft | 485 kts | 162° |
| 2026-05-01 11:09 | 37.40758 | 22.33838 | 37127 ft | 484 kts | 162° |
| 2026-05-01 11:09 | 37.34746 | 22.37650 | 37106 ft | 484 kts | 163° |
| 2026-05-01 11:10 | 37.25738 | 22.43352 | 37106 ft | 483 kts | 163° |
| 2026-05-01 11:10 | 37.19737 | 22.47148 | 37101 ft | 483 kts | 162° |
| 2026-05-01 11:11 | 37.13743 | 22.50936 | 37063 ft | 482 kts | 162° |
| 2026-05-01 11:11 | 37.07744 | 22.54719 | 37101 ft | 483 kts | 163° |
| 2026-05-01 11:12 | 37.01740 | 22.58498 | 37097 ft | 483 kts | 162° |
| 2026-05-01 11:12 | 36.95731 | 22.62274 | 37103 ft | 483 kts | 163° |
| 2026-05-01 11:13 | 36.89725 | 22.66041 | 37099 ft | 483 kts | 163° |
| 2026-05-01 11:13 | 36.83707 | 22.69808 | 37090 ft | 485 kts | 163° |
| 2026-05-01 11:14 | 36.77670 | 22.73581 | 37092 ft | 485 kts | 163° |
| 2026-05-01 11:14 | 36.71633 | 22.77349 | 37090 ft | 485 kts | 163° |
| 2026-05-01 11:15 | 36.65631 | 22.81083 | 37091 ft | 486 kts | 163° |
| 2026-05-01 11:15 | 36.59577 | 22.84828 | 37093 ft | 487 kts | 163° |
| 2026-05-01 11:16 | 36.53513 | 22.88581 | 37098 ft | 487 kts | 163° |
| 2026-05-01 11:16 | 36.47451 | 22.92336 | 37102 ft | 487 kts | 163° |
| 2026-05-01 11:17 | 36.41389 | 22.96086 | 37100 ft | 487 kts | 163° |
| 2026-05-01 11:17 | 36.35328 | 22.99828 | 37088 ft | 486 kts | 163° |
| 2026-05-01 11:18 | 36.29269 | 23.03562 | 37096 ft | 486 kts | 163° |
| 2026-05-01 11:18 | 36.23211 | 23.07289 | 37102 ft | 486 kts | 163° |
| 2026-05-01 11:19 | 36.17155 | 23.11007 | 37089 ft | 486 kts | 163° |
| 2026-05-01 11:19 | 36.11082 | 23.14726 | 37096 ft | 487 kts | 163° |
| 2026-05-01 11:20 | 36.05004 | 23.18433 | 37094 ft | 487 kts | 163° |
| 2026-05-01 11:20 | 35.98926 | 23.22143 | 37085 ft | 487 kts | 163° |
| 2026-05-01 11:21 | 35.92855 | 23.25846 | 37090 ft | 487 kts | 163° |
| 2026-05-01 11:21 | 35.86773 | 23.29551 | 37087 ft | 488 kts | 163° |
| 2026-05-01 11:22 | 35.80688 | 23.33251 | 37082 ft | 487 kts | 163° |
| 2026-05-01 11:22 | 35.74612 | 23.36940 | 37083 ft | 487 kts | 163° |
| 2026-05-01 11:23 | 35.68535 | 23.40621 | 37075 ft | 487 kts | 163° |
| 2026-05-01 11:23 | 35.62456 | 23.44298 | 37062 ft | 487 kts | 163° |
| 2026-05-01 11:24 | 35.56410 | 23.47948 | 37057 ft | 488 kts | 163° |
| 2026-05-01 11:25 | 35.47265 | 23.53459 | 37058 ft | 488 kts | 163° |
| 2026-05-01 11:25 | 35.38111 | 23.58961 | 37045 ft | 488 kts | 163° |
| 2026-05-01 11:26 | 35.28951 | 23.64429 | 37022 ft | 488 kts | 163° |
| 2026-05-01 11:27 | 35.22848 | 23.68088 | 37028 ft | 489 kts | 162° |
| 2026-05-01 11:27 | 35.16782 | 23.71895 | 37018 ft | 490 kts | 161° |
| 2026-05-01 11:28 | 35.10737 | 23.75759 | 37024 ft | 491 kts | 161° |
| 2026-05-01 11:28 | 35.04681 | 23.79618 | 36966 ft | 491 kts | 161° |
| 2026-05-01 11:29 | 34.95585 | 23.85385 | 37002 ft | 491 kts | 161° |
| 2026-05-01 11:30 | 34.86483 | 23.91137 | 37002 ft | 491 kts | 162° |
| 2026-05-01 11:30 | 34.80414 | 23.94965 | 37000 ft | 491 kts | 162° |
| 2026-05-01 11:31 | 34.74341 | 23.98788 | 36994 ft | 492 kts | 161° |
| 2026-05-01 11:31 | 34.68259 | 24.02611 | 36997 ft | 492 kts | 161° |
| 2026-05-01 11:32 | 34.62172 | 24.06431 | 36998 ft | 492 kts | 162° |
| 2026-05-01 11:32 | 34.56084 | 24.10245 | 36999 ft | 493 kts | 161° |
| 2026-05-01 11:33 | 34.49986 | 24.14058 | 36974 ft | 493 kts | 161° |
| 2026-05-01 11:33 | 34.43881 | 24.17854 | 36992 ft | 493 kts | 161° |
| 2026-05-01 11:34 | 34.37770 | 24.21652 | 36993 ft | 493 kts | 161° |
| 2026-05-01 11:34 | 34.31667 | 24.25448 | 36992 ft | 493 kts | 161° |
| 2026-05-01 11:35 | 34.25562 | 24.29242 | 36991 ft | 493 kts | 161° |
| 2026-05-01 11:35 | 34.19455 | 24.33030 | 36976 ft | 494 kts | 162° |
| 2026-05-01 11:36 | 34.13349 | 24.36811 | 36989 ft | 494 kts | 162° |
| 2026-05-01 11:36 | 34.07232 | 24.40593 | 36987 ft | 494 kts | 161° |
| 2026-05-01 11:37 | 34.01153 | 24.44349 | 36986 ft | 495 kts | 161° |
| 2026-05-01 11:37 | 33.95077 | 24.48277 | 36953 ft | 496 kts | 160° |
| 2026-05-01 11:38 | 33.89021 | 24.52313 | 36983 ft | 498 kts | 159° |
| 2026-05-01 11:38 | 33.82962 | 24.56352 | 36983 ft | 498 kts | 159° |
| 2026-05-01 11:39 | 33.76897 | 24.60374 | 36980 ft | 498 kts | 160° |
| 2026-05-01 11:39 | 33.70832 | 24.64384 | 36982 ft | 498 kts | 160° |
| 2026-05-01 11:40 | 33.64762 | 24.68390 | 36971 ft | 499 kts | 160° |
| 2026-05-01 11:40 | 33.58677 | 24.72399 | 36979 ft | 499 kts | 160° |
| 2026-05-01 11:41 | 33.53620 | 24.75727 | 36982 ft | 499 kts | 160° |
| 2026-05-01 11:41 | 33.47531 | 24.79728 | 36980 ft | 499 kts | 160° |
| 2026-05-01 11:42 | 33.41441 | 24.83723 | 36976 ft | 499 kts | 160° |
| 2026-05-01 11:42 | 33.35351 | 24.87711 | 36977 ft | 499 kts | 160° |
| 2026-05-01 11:43 | 33.29260 | 24.91694 | 36972 ft | 499 kts | 160° |
| 2026-05-01 11:43 | 33.23164 | 24.95660 | 36972 ft | 499 kts | 160° |
| 2026-05-01 11:44 | 33.14018 | 25.01601 | 36971 ft | 499 kts | 160° |
| 2026-05-01 11:44 | 33.07918 | 25.05565 | 36965 ft | 500 kts | 160° |
| 2026-05-01 11:45 | 33.01801 | 25.09537 | 36968 ft | 501 kts | 160° |
| 2026-05-01 11:45 | 32.95725 | 25.13476 | 36968 ft | 501 kts | 160° |
| 2026-05-01 11:46 | 32.89604 | 25.17437 | 36966 ft | 501 kts | 160° |
| 2026-05-01 11:46 | 32.83485 | 25.21391 | 36935 ft | 501 kts | 160° |
| 2026-05-01 11:47 | 32.77350 | 25.25346 | 36959 ft | 502 kts | 160° |
| 2026-05-01 11:47 | 32.71214 | 25.29298 | 36963 ft | 502 kts | 160° |
| 2026-05-01 11:48 | 32.65072 | 25.33248 | 36958 ft | 502 kts | 160° |
| 2026-05-01 11:48 | 32.58926 | 25.37193 | 36960 ft | 502 kts | 160° |
| 2026-05-01 11:49 | 32.52775 | 25.41131 | 36955 ft | 503 kts | 160° |
| 2026-05-01 11:49 | 32.46608 | 25.45060 | 36963 ft | 503 kts | 160° |
| 2026-05-01 11:50 | 32.40440 | 25.48994 | 36958 ft | 504 kts | 160° |
| 2026-05-01 11:50 | 32.34273 | 25.52928 | 36960 ft | 504 kts | 160° |
| 2026-05-01 11:51 | 32.28114 | 25.56852 | 36955 ft | 504 kts | 160° |
| 2026-05-01 11:51 | 32.21940 | 25.60778 | 36950 ft | 504 kts | 160° |
| 2026-05-01 11:52 | 32.15759 | 25.64702 | 36952 ft | 504 kts | 160° |
| 2026-05-01 11:52 | 32.09576 | 25.68622 | 36962 ft | 504 kts | 159° |
| 2026-05-01 11:53 | 32.03393 | 25.72536 | 36953 ft | 504 kts | 160° |
| 2026-05-01 11:53 | 31.97209 | 25.76445 | 36936 ft | 504 kts | 159° |
| 2026-05-01 11:54 | 31.91012 | 25.80354 | 36951 ft | 505 kts | 159° |
| 2026-05-01 11:54 | 31.84811 | 25.84261 | 36952 ft | 506 kts | 160° |
| 2026-05-01 11:55 | 31.78606 | 25.88159 | 36950 ft | 505 kts | 160° |
| 2026-05-01 11:55 | 31.72400 | 25.92042 | 36951 ft | 505 kts | 160° |
| 2026-05-01 11:56 | 31.66192 | 25.95928 | 36935 ft | 506 kts | 159° |
| 2026-05-01 11:56 | 31.60016 | 25.99794 | 36946 ft | 507 kts | 159° |
| 2026-05-01 11:57 | 31.53797 | 26.03684 | 36956 ft | 507 kts | 159° |
| 2026-05-01 11:57 | 31.47587 | 26.07614 | 36949 ft | 509 kts | 156° |
| 2026-05-01 11:58 | 31.41595 | 26.12117 | 36947 ft | 514 kts | 152° |
| 2026-05-01 11:59 | 31.32778 | 26.19279 | 36952 ft | 515 kts | 152° |
| 2026-05-01 11:59 | 31.26872 | 26.24019 | 36949 ft | 514 kts | 152° |
| 2026-05-01 12:00 | 31.17992 | 26.31069 | 36955 ft | 514 kts | 152° |
| 2026-05-01 12:01 | 31.09110 | 26.38102 | 36935 ft | 514 kts | 152° |
| 2026-05-01 12:01 | 31.03184 | 26.42787 | 36955 ft | 515 kts | 152° |
| 2026-05-01 12:02 | 30.97255 | 26.47469 | 36952 ft | 515 kts | 152° |
| 2026-05-01 12:02 | 30.91323 | 26.52145 | 36955 ft | 515 kts | 152° |
| 2026-05-01 12:03 | 30.85386 | 26.56818 | 36967 ft | 515 kts | 152° |
| 2026-05-01 12:03 | 30.79495 | 26.61447 | 36962 ft | 515 kts | 152° |
| 2026-05-01 12:04 | 30.73550 | 26.66094 | 36958 ft | 515 kts | 152° |
| 2026-05-01 12:04 | 30.67601 | 26.70741 | 36961 ft | 515 kts | 152° |
| 2026-05-01 12:05 | 30.61657 | 26.75389 | 36959 ft | 515 kts | 152° |
| 2026-05-01 12:05 | 30.52734 | 26.82358 | 36963 ft | 515 kts | 152° |
| 2026-05-01 12:06 | 30.46795 | 26.86987 | 36961 ft | 515 kts | 152° |
| 2026-05-01 12:06 | 30.40843 | 26.91619 | 36960 ft | 515 kts | 152° |
| 2026-05-01 12:07 | 30.34890 | 26.96245 | 36960 ft | 515 kts | 152° |
| 2026-05-01 12:07 | 30.28934 | 27.00866 | 36959 ft | 515 kts | 152° |
| 2026-05-01 12:08 | 30.22976 | 27.05482 | 36956 ft | 515 kts | 152° |
| 2026-05-01 12:08 | 30.17021 | 27.10089 | 36932 ft | 515 kts | 152° |
| 2026-05-01 12:09 | 30.11057 | 27.14695 | 36948 ft | 516 kts | 152° |
| 2026-05-01 12:09 | 30.05085 | 27.19286 | 36948 ft | 516 kts | 152° |
| 2026-05-01 12:10 | 29.96126 | 27.26166 | 36941 ft | 516 kts | 152° |
| 2026-05-01 12:11 | 29.87170 | 27.33045 | 36905 ft | 516 kts | 152° |
| 2026-05-01 12:11 | 29.81195 | 27.37627 | 36934 ft | 516 kts | 152° |
| 2026-05-01 12:12 | 29.75215 | 27.42205 | 36932 ft | 516 kts | 152° |
| 2026-05-01 12:12 | 29.69237 | 27.46776 | 36931 ft | 516 kts | 152° |
| 2026-05-01 12:13 | 29.63253 | 27.51344 | 36932 ft | 516 kts | 152° |
| 2026-05-01 12:13 | 29.57265 | 27.55909 | 36933 ft | 516 kts | 152° |
| 2026-05-01 12:14 | 29.51269 | 27.60472 | 36930 ft | 517 kts | 153° |
| 2026-05-01 12:14 | 29.45268 | 27.65033 | 36928 ft | 517 kts | 153° |
| 2026-05-01 12:15 | 29.39305 | 27.69556 | 36928 ft | 517 kts | 153° |
| 2026-05-01 12:15 | 29.33296 | 27.74093 | 36931 ft | 517 kts | 153° |
| 2026-05-01 12:16 | 29.27292 | 27.78627 | 36938 ft | 517 kts | 153° |
| 2026-05-01 12:16 | 29.21280 | 27.83169 | 36932 ft | 518 kts | 153° |
| 2026-05-01 12:17 | 29.15260 | 27.87712 | 36933 ft | 518 kts | 153° |
| 2026-05-01 12:17 | 29.09240 | 27.92250 | 36933 ft | 518 kts | 153° |
| 2026-05-01 12:18 | 29.03216 | 27.96782 | 36932 ft | 518 kts | 153° |
| 2026-05-01 12:18 | 28.97191 | 28.01310 | 36932 ft | 518 kts | 153° |
| 2026-05-01 12:19 | 28.91161 | 28.05834 | 36923 ft | 519 kts | 153° |
| 2026-05-01 12:19 | 28.85129 | 28.10356 | 36932 ft | 519 kts | 153° |
| 2026-05-01 12:20 | 28.79105 | 28.14909 | 36932 ft | 519 kts | 153° |
| 2026-05-01 12:20 | 28.73089 | 28.19477 | 36935 ft | 519 kts | 153° |
| 2026-05-01 12:21 | 28.67086 | 28.24033 | 36933 ft | 519 kts | 153° |
| 2026-05-01 12:21 | 28.61067 | 28.28593 | 36925 ft | 521 kts | 153° |
| 2026-05-01 12:22 | 28.55030 | 28.33157 | 36935 ft | 521 kts | 153° |
| 2026-05-01 12:22 | 28.48994 | 28.37716 | 36934 ft | 521 kts | 153° |
| 2026-05-01 12:23 | 28.43030 | 28.42215 | 36933 ft | 521 kts | 153° |
| 2026-05-01 12:23 | 28.36990 | 28.46763 | 36933 ft | 521 kts | 153° |
| 2026-05-01 12:24 | 28.30936 | 28.51316 | 36912 ft | 521 kts | 153° |
| 2026-05-01 12:24 | 28.24876 | 28.55866 | 36939 ft | 522 kts | 153° |
| 2026-05-01 12:25 | 28.15780 | 28.62684 | 36931 ft | 522 kts | 154° |
| 2026-05-01 12:26 | 28.09711 | 28.67210 | 36937 ft | 522 kts | 154° |
| 2026-05-01 12:26 | 28.00613 | 28.73997 | 36898 ft | 522 kts | 154° |
| 2026-05-01 12:27 | 27.91505 | 28.80787 | 36936 ft | 524 kts | 154° |
| 2026-05-01 12:28 | 27.82380 | 28.87577 | 36937 ft | 524 kts | 154° |
| 2026-05-01 12:29 | 27.73246 | 28.94360 | 36941 ft | 524 kts | 154° |
| 2026-05-01 12:29 | 27.64160 | 29.01093 | 36937 ft | 523 kts | 154° |
| 2026-05-01 12:30 | 27.56016 | 29.07115 | 36944 ft | 523 kts | 154° |
| 2026-05-01 12:31 | 27.48937 | 29.12342 | 36941 ft | 523 kts | 154° |
| 2026-05-01 12:31 | 27.43831 | 29.16099 | 36945 ft | 523 kts | 154° |
| 2026-05-01 12:32 | 27.37734 | 29.20574 | 36941 ft | 523 kts | 154° |
| 2026-05-01 12:32 | 27.31635 | 29.25054 | 37137 ft | 523 kts | 154° |
| 2026-05-01 12:32 | 27.28589 | 29.27292 | 37429 ft | 523 kts | 154° |
| 2026-05-01 12:33 | 27.25542 | 29.29530 | 37705 ft | 523 kts | 155° |
| 2026-05-01 12:33 | 27.22493 | 29.31768 | 37981 ft | 523 kts | 155° |
| 2026-05-01 12:33 | 27.19445 | 29.34003 | 38212 ft | 524 kts | 155° |
| 2026-05-01 12:33 | 27.16433 | 29.36210 | 38479 ft | 524 kts | 155° |
| 2026-05-01 12:34 | 27.13382 | 29.38444 | 38721 ft | 523 kts | 155° |
| 2026-05-01 12:34 | 27.10333 | 29.40675 | 38881 ft | 524 kts | 156° |
| 2026-05-01 12:34 | 27.04237 | 29.45134 | 38919 ft | 522 kts | 156° |
| 2026-05-01 12:35 | 26.98148 | 29.49579 | 38939 ft | 522 kts | 156° |
| 2026-05-01 12:35 | 26.92058 | 29.54018 | 38947 ft | 522 kts | 156° |
| 2026-05-01 12:36 | 26.85973 | 29.58448 | 38936 ft | 523 kts | 156° |
| 2026-05-01 12:36 | 26.79875 | 29.62883 | 38936 ft | 523 kts | 156° |
| 2026-05-01 12:37 | 26.73769 | 29.67310 | 38910 ft | 523 kts | 156° |
| 2026-05-01 12:37 | 26.67654 | 29.71730 | 38931 ft | 523 kts | 156° |
| 2026-05-01 12:38 | 26.61543 | 29.76152 | 38935 ft | 524 kts | 156° |
| 2026-05-01 12:38 | 26.55438 | 29.80601 | 38930 ft | 524 kts | 155° |
| 2026-05-01 12:39 | 26.49343 | 29.85064 | 38933 ft | 524 kts | 155° |
| 2026-05-01 12:39 | 26.43242 | 29.89527 | 38932 ft | 524 kts | 155° |
| 2026-05-01 12:40 | 26.37135 | 29.93987 | 38935 ft | 525 kts | 155° |
| 2026-05-01 12:40 | 26.31021 | 29.98444 | 38933 ft | 525 kts | 155° |
| 2026-05-01 12:41 | 26.24946 | 30.02863 | 38932 ft | 525 kts | 155° |
| 2026-05-01 12:41 | 26.18762 | 30.07282 | 38930 ft | 524 kts | 156° |
| 2026-05-01 12:42 | 26.12613 | 30.11642 | 38918 ft | 524 kts | 156° |
| 2026-05-01 12:42 | 26.06458 | 30.16006 | 38921 ft | 525 kts | 156° |
| 2026-05-01 12:43 | 26.00348 | 30.20339 | 38922 ft | 525 kts | 156° |
| 2026-05-01 12:43 | 25.94195 | 30.24699 | 38923 ft | 524 kts | 156° |
| 2026-05-01 12:44 | 25.88041 | 30.29054 | 38914 ft | 524 kts | 156° |
| 2026-05-01 12:45 | 25.75326 | 30.36287 | 38901 ft | 501 kts | 173° |
| 2026-05-01 12:45 | 25.68663 | 30.38481 | 38908 ft | 499 kts | 175° |
| 2026-05-01 12:46 | 25.61999 | 30.40686 | 38900 ft | 501 kts | 174° |
| 2026-05-01 12:46 | 25.55329 | 30.43001 | 38892 ft | 503 kts | 173° |
| 2026-05-01 12:47 | 25.48661 | 30.45356 | 38862 ft | 502 kts | 172° |
| 2026-05-01 12:47 | 25.42010 | 30.47700 | 38888 ft | 501 kts | 173° |
| 2026-05-01 12:48 | 25.35368 | 30.50018 | 38889 ft | 501 kts | 173° |
| 2026-05-01 12:48 | 25.28723 | 30.52327 | 38891 ft | 501 kts | 173° |
| 2026-05-01 12:49 | 25.22121 | 30.54619 | 38892 ft | 501 kts | 173° |
| 2026-05-01 12:49 | 25.15480 | 30.56924 | 38884 ft | 500 kts | 173° |
| 2026-05-01 12:50 | 25.08847 | 30.59224 | 38889 ft | 499 kts | 173° |
| 2026-05-01 12:50 | 25.02220 | 30.61519 | 38890 ft | 499 kts | 173° |
| 2026-05-01 12:51 | 24.95601 | 30.63808 | 38893 ft | 499 kts | 173° |
| 2026-05-01 12:52 | 24.85673 | 30.67238 | 38893 ft | 497 kts | 172° |
| 2026-05-01 12:52 | 24.75775 | 30.70651 | 38897 ft | 497 kts | 172° |
| 2026-05-01 12:53 | 24.65874 | 30.74058 | 38899 ft | 497 kts | 172° |
| 2026-05-01 12:54 | 24.59279 | 30.76326 | 38884 ft | 496 kts | 172° |
| 2026-05-01 12:54 | 24.49406 | 30.79712 | 38896 ft | 495 kts | 172° |
| 2026-05-01 12:55 | 24.39538 | 30.83087 | 38892 ft | 495 kts | 172° |
| 2026-05-01 12:56 | 24.32961 | 30.85337 | 38893 ft | 495 kts | 172° |
| 2026-05-01 12:56 | 24.26383 | 30.87586 | 38893 ft | 495 kts | 172° |
| 2026-05-01 12:57 | 24.19852 | 30.89817 | 38892 ft | 495 kts | 172° |
| 2026-05-01 12:57 | 24.09982 | 30.93183 | 38889 ft | 495 kts | 172° |
| 2026-05-01 12:58 | 24.03408 | 30.95423 | 38879 ft | 495 kts | 172° |
| 2026-05-01 12:59 | 23.93562 | 30.98772 | 38892 ft | 494 kts | 171° |
| 2026-05-01 12:59 | 23.83722 | 31.02113 | 38884 ft | 494 kts | 171° |
| 2026-05-01 13:00 | 23.73881 | 31.05449 | 38884 ft | 494 kts | 171° |
| 2026-05-01 13:01 | 23.64051 | 31.08769 | 38884 ft | 493 kts | 171° |
| 2026-05-01 13:02 | 23.54232 | 31.12085 | 38883 ft | 492 kts | 171° |
| 2026-05-01 13:07 | 22.82522 | 31.36160 | 38870 ft | 489 kts | 170° |
| 2026-05-01 13:08 | 22.76027 | 31.38329 | 38876 ft | 488 kts | 170° |
| 2026-05-01 13:08 | 22.69536 | 31.40495 | 38878 ft | 488 kts | 170° |
| 2026-05-01 13:09 | 22.63045 | 31.42658 | 38881 ft | 488 kts | 170° |
| 2026-05-01 13:09 | 22.56555 | 31.44819 | 38880 ft | 488 kts | 170° |
| 2026-05-01 13:10 | 22.50074 | 31.46975 | 38877 ft | 487 kts | 170° |
| 2026-05-01 13:10 | 22.43597 | 31.49128 | 38905 ft | 487 kts | 170° |
| 2026-05-01 13:11 | 22.37126 | 31.51276 | 38914 ft | 487 kts | 170° |
| 2026-05-01 13:11 | 22.30702 | 31.53412 | 38905 ft | 486 kts | 169° |
| 2026-05-01 13:12 | 22.24202 | 31.55577 | 38883 ft | 486 kts | 169° |
| 2026-05-01 13:12 | 22.17788 | 31.57713 | 38899 ft | 485 kts | 169° |
| 2026-05-01 13:13 | 22.11343 | 31.59857 | 38890 ft | 485 kts | 169° |
| 2026-05-01 13:13 | 22.04872 | 31.61836 | 38884 ft | 481 kts | 173° |
| 2026-05-01 13:14 | 21.98349 | 31.63369 | 38886 ft | 479 kts | 175° |
| 2026-05-01 13:14 | 21.91821 | 31.64814 | 38875 ft | 479 kts | 175° |
| 2026-05-01 13:15 | 21.85300 | 31.66286 | 38875 ft | 479 kts | 175° |
| 2026-05-01 13:15 | 21.78782 | 31.67778 | 38880 ft | 479 kts | 174° |
| 2026-05-01 13:16 | 21.72263 | 31.69274 | 38878 ft | 479 kts | 174° |
| 2026-05-01 13:16 | 21.65745 | 31.70767 | 38877 ft | 479 kts | 174° |
| 2026-05-01 13:17 | 21.52723 | 31.73746 | 38875 ft | 478 kts | 174° |
| 2026-05-01 13:18 | 21.42956 | 31.75975 | 38878 ft | 478 kts | 174° |
| 2026-05-01 13:18 | 21.36444 | 31.77461 | 38877 ft | 478 kts | 174° |
| 2026-05-01 13:19 | 21.29934 | 31.78944 | 38879 ft | 478 kts | 174° |
| 2026-05-01 13:20 | 21.20162 | 31.81164 | 38877 ft | 478 kts | 174° |
| 2026-05-01 13:20 | 21.13694 | 31.82632 | 38877 ft | 479 kts | 174° |
| 2026-05-01 13:21 | 21.03932 | 31.84848 | 38867 ft | 478 kts | 174° |
| 2026-05-01 13:21 | 20.97421 | 31.86325 | 38881 ft | 478 kts | 174° |
| 2026-05-01 13:22 | 20.91970 | 31.87561 | 38881 ft | 478 kts | 174° |
| 2026-05-01 13:22 | 20.85511 | 31.89024 | 38882 ft | 478 kts | 174° |
| 2026-05-01 13:23 | 20.79007 | 31.90495 | 38880 ft | 478 kts | 174° |
| 2026-05-01 13:23 | 20.72510 | 31.91964 | 38873 ft | 476 kts | 173° |
| 2026-05-01 13:24 | 20.66032 | 31.93427 | 38874 ft | 476 kts | 173° |
| 2026-05-01 13:25 | 20.56314 | 31.95619 | 38872 ft | 476 kts | 173° |
| 2026-05-01 13:25 | 20.49840 | 31.97078 | 38877 ft | 476 kts | 173° |
| 2026-05-01 13:26 | 20.43369 | 31.98535 | 38865 ft | 474 kts | 173° |
| 2026-05-01 13:26 | 20.36931 | 31.99981 | 38868 ft | 472 kts | 173° |
| 2026-05-01 13:27 | 20.30502 | 32.01423 | 38868 ft | 472 kts | 173° |
| 2026-05-01 13:27 | 20.20855 | 32.03588 | 38865 ft | 472 kts | 173° |
| 2026-05-01 13:28 | 20.11225 | 32.05748 | 38862 ft | 470 kts | 173° |
| 2026-05-01 13:29 | 19.98436 | 32.08612 | 38861 ft | 469 kts | 173° |
| 2026-05-01 13:31 | 19.79330 | 32.12881 | 38859 ft | 468 kts | 172° |
| 2026-05-01 13:32 | 19.63406 | 32.16431 | 38855 ft | 468 kts | 172° |
| 2026-05-01 13:33 | 19.47496 | 32.19965 | 38848 ft | 467 kts | 172° |
| 2026-05-01 13:34 | 19.34781 | 32.22789 | 38848 ft | 467 kts | 172° |
| 2026-05-01 13:35 | 19.25252 | 32.24902 | 38836 ft | 466 kts | 172° |
| 2026-05-01 13:36 | 19.15741 | 32.27010 | 38847 ft | 465 kts | 172° |
| 2026-05-01 13:36 | 19.06249 | 32.29110 | 38845 ft | 465 kts | 172° |
| 2026-05-01 13:37 | 18.99914 | 32.30510 | 38844 ft | 465 kts | 172° |
| 2026-05-01 13:37 | 18.93582 | 32.31908 | 38839 ft | 464 kts | 171° |
| 2026-05-01 13:38 | 18.84101 | 32.34001 | 38837 ft | 464 kts | 171° |
| 2026-05-01 13:39 | 18.77782 | 32.35392 | 38836 ft | 463 kts | 171° |
| 2026-05-01 13:39 | 18.71472 | 32.36779 | 38837 ft | 463 kts | 171° |
| 2026-05-01 13:40 | 18.65163 | 32.38167 | 38824 ft | 463 kts | 171° |
| 2026-05-01 13:40 | 18.58869 | 32.39551 | 38834 ft | 462 kts | 171° |
| 2026-05-01 13:41 | 18.52621 | 32.40924 | 38837 ft | 462 kts | 171° |
| 2026-05-01 13:41 | 18.46332 | 32.42305 | 38836 ft | 462 kts | 171° |
| 2026-05-01 13:42 | 18.40044 | 32.43685 | 38839 ft | 462 kts | 171° |
| 2026-05-01 13:42 | 18.33756 | 32.45064 | 38838 ft | 462 kts | 171° |
| 2026-05-01 13:43 | 18.27468 | 32.46442 | 38836 ft | 462 kts | 171° |
| 2026-05-01 13:43 | 18.21179 | 32.47819 | 38832 ft | 462 kts | 171° |
| 2026-05-01 13:44 | 18.14891 | 32.49194 | 38832 ft | 462 kts | 171° |
| 2026-05-01 13:44 | 18.08604 | 32.50569 | 38831 ft | 462 kts | 171° |
| 2026-05-01 13:45 | 18.02317 | 32.51942 | 38832 ft | 461 kts | 171° |
| 2026-05-01 13:45 | 17.96034 | 32.53313 | 38832 ft | 461 kts | 171° |
| 2026-05-01 13:46 | 17.89751 | 32.54681 | 38828 ft | 461 kts | 171° |
| 2026-05-01 13:46 | 17.83470 | 32.56049 | 38829 ft | 461 kts | 171° |
| 2026-05-01 13:47 | 17.77187 | 32.57417 | 38828 ft | 461 kts | 171° |
| 2026-05-01 13:47 | 17.70909 | 32.58784 | 38825 ft | 461 kts | 171° |
| 2026-05-01 13:48 | 17.64628 | 32.60150 | 38822 ft | 461 kts | 171° |
| 2026-05-01 13:48 | 17.58348 | 32.61515 | 38823 ft | 461 kts | 171° |
| 2026-05-01 13:49 | 17.52065 | 32.62880 | 38820 ft | 461 kts | 171° |
| 2026-05-01 13:49 | 17.45833 | 32.64233 | 38820 ft | 460 kts | 171° |
| 2026-05-01 13:50 | 17.39561 | 32.65593 | 38819 ft | 460 kts | 171° |
| 2026-05-01 13:50 | 17.33292 | 32.66952 | 38819 ft | 460 kts | 171° |
| 2026-05-01 13:51 | 17.27033 | 32.68307 | 38818 ft | 460 kts | 171° |
| 2026-05-01 13:51 | 17.20762 | 32.69661 | 38817 ft | 460 kts | 171° |
| 2026-05-01 13:52 | 17.14492 | 32.71010 | 38815 ft | 460 kts | 171° |
| 2026-05-01 13:52 | 17.08225 | 32.72357 | 38823 ft | 460 kts | 171° |
| 2026-05-01 13:53 | 17.01955 | 32.73705 | 38822 ft | 460 kts | 171° |
| 2026-05-01 13:53 | 16.92552 | 32.75725 | 38815 ft | 460 kts | 171° |
| 2026-05-01 13:54 | 16.86284 | 32.77071 | 38818 ft | 460 kts | 171° |
| 2026-05-01 13:54 | 16.80060 | 32.78406 | 38814 ft | 459 kts | 171° |
| 2026-05-01 13:55 | 16.73801 | 32.79748 | 38815 ft | 459 kts | 171° |
| 2026-05-01 13:55 | 16.67541 | 32.81089 | 38812 ft | 459 kts | 171° |
| 2026-05-01 13:56 | 16.61282 | 32.82429 | 38812 ft | 459 kts | 171° |
| 2026-05-01 13:56 | 16.55004 | 32.83626 | 38809 ft | 458 kts | 173° |
| 2026-05-01 13:57 | 16.49723 | 32.84459 | 38806 ft | 457 kts | 174° |
| 2026-05-01 13:57 | 16.42408 | 32.85583 | 38808 ft | 457 kts | 174° |
| 2026-05-01 13:58 | 16.36115 | 32.86565 | 38807 ft | 457 kts | 173° |
| 2026-05-01 13:58 | 16.29822 | 32.87555 | 38807 ft | 457 kts | 173° |
| 2026-05-01 13:59 | 16.23528 | 32.88546 | 38807 ft | 457 kts | 173° |
| 2026-05-01 13:59 | 16.17249 | 32.89534 | 38806 ft | 456 kts | 173° |
| 2026-05-01 14:00 | 16.10979 | 32.90519 | 38810 ft | 455 kts | 173° |
| 2026-05-01 14:00 | 16.04714 | 32.91503 | 38810 ft | 455 kts | 173° |
| 2026-05-01 14:01 | 15.98447 | 32.92487 | 38802 ft | 455 kts | 173° |
| 2026-05-01 14:01 | 15.92188 | 32.93468 | 38798 ft | 455 kts | 173° |
| 2026-05-01 14:02 | 15.85934 | 32.94448 | 38798 ft | 454 kts | 173° |
| 2026-05-01 14:02 | 15.79684 | 32.95428 | 38798 ft | 454 kts | 173° |
| 2026-05-01 14:03 | 15.73435 | 32.96405 | 38797 ft | 454 kts | 173° |
| 2026-05-01 14:03 | 15.67183 | 32.97382 | 38797 ft | 454 kts | 173° |
| 2026-05-01 14:04 | 15.60932 | 32.98358 | 38791 ft | 454 kts | 172° |
| 2026-05-01 14:04 | 15.55759 | 32.99187 | 38792 ft | 453 kts | 172° |
| 2026-05-01 14:05 | 15.48461 | 33.00321 | 38792 ft | 454 kts | 172° |
| 2026-05-01 14:05 | 15.42249 | 33.01283 | 38793 ft | 455 kts | 172° |
| 2026-05-01 14:06 | 15.36001 | 33.02255 | 38791 ft | 455 kts | 173° |
| 2026-05-01 14:06 | 15.29748 | 33.03227 | 38790 ft | 454 kts | 172° |
| 2026-05-01 14:07 | 15.23495 | 33.04221 | 38786 ft | 455 kts | 172° |
| 2026-05-01 14:08 | 15.14113 | 33.05682 | 38788 ft | 455 kts | 172° |
| 2026-05-01 14:08 | 15.07857 | 33.06641 | 38785 ft | 454 kts | 173° |
| 2026-05-01 14:09 | 15.01603 | 33.07609 | 38783 ft | 454 kts | 172° |
| 2026-05-01 14:09 | 14.95350 | 33.08512 | 38780 ft | 454 kts | 172° |
| 2026-05-01 14:10 | 14.89101 | 33.09500 | 38782 ft | 454 kts | 172° |
| 2026-05-01 14:10 | 14.82849 | 33.10504 | 38783 ft | 455 kts | 172° |
| 2026-05-01 14:11 | 14.77676 | 33.11323 | 38779 ft | 454 kts | 172° |
| 2026-05-01 14:11 | 14.68270 | 33.12786 | 38776 ft | 453 kts | 172° |
| 2026-05-01 14:12 | 14.62040 | 33.13748 | 38779 ft | 453 kts | 172° |
| 2026-05-01 14:12 | 14.55799 | 33.14704 | 38780 ft | 454 kts | 172° |
| 2026-05-01 14:13 | 14.49550 | 33.15694 | 38774 ft | 455 kts | 172° |
| 2026-05-01 14:13 | 14.43284 | 33.16645 | 38784 ft | 455 kts | 172° |
| 2026-05-01 14:14 | 14.37024 | 33.17598 | 38774 ft | 454 kts | 172° |
| 2026-05-01 14:14 | 14.30765 | 33.18548 | 38773 ft | 454 kts | 172° |
| 2026-05-01 14:15 | 14.24518 | 33.19517 | 38781 ft | 454 kts | 171° |
| 2026-05-01 14:15 | 14.18300 | 33.20480 | 38770 ft | 456 kts | 172° |
| 2026-05-01 14:16 | 14.12029 | 33.21437 | 38774 ft | 455 kts | 172° |
| 2026-05-01 14:16 | 14.05774 | 33.22393 | 38770 ft | 453 kts | 173° |
| 2026-05-01 14:17 | 13.99519 | 33.23379 | 38770 ft | 455 kts | 172° |
| 2026-05-01 14:17 | 13.93252 | 33.24331 | 38771 ft | 455 kts | 172° |
| 2026-05-01 14:18 | 13.86982 | 33.25276 | 38769 ft | 455 kts | 172° |
| 2026-05-01 14:18 | 13.81736 | 33.26074 | 38779 ft | 455 kts | 172° |
| 2026-05-01 14:19 | 13.74449 | 33.27188 | 38772 ft | 455 kts | 172° |
| 2026-05-01 14:19 | 13.68181 | 33.28145 | 38770 ft | 455 kts | 172° |
| 2026-05-01 14:20 | 13.58776 | 33.29580 | 38780 ft | 455 kts | 172° |
| 2026-05-01 14:21 | 13.52511 | 33.30537 | 38767 ft | 455 kts | 172° |
| 2026-05-01 14:21 | 13.46254 | 33.31491 | 38764 ft | 455 kts | 172° |
| 2026-05-01 14:22 | 13.36852 | 33.32925 | 38775 ft | 455 kts | 172° |
| 2026-05-01 14:22 | 13.30584 | 33.33880 | 38774 ft | 455 kts | 172° |
| 2026-05-01 14:23 | 13.24316 | 33.34834 | 38772 ft | 455 kts | 172° |
| 2026-05-01 14:23 | 13.18049 | 33.35788 | 38762 ft | 455 kts | 172° |
| 2026-05-01 14:24 | 13.11785 | 33.36741 | 38772 ft | 455 kts | 172° |
| 2026-05-01 14:24 | 13.05521 | 33.37693 | 38769 ft | 455 kts | 172° |
| 2026-05-01 14:25 | 12.99262 | 33.38644 | 38767 ft | 455 kts | 172° |
| 2026-05-01 14:25 | 12.93004 | 33.39595 | 38759 ft | 455 kts | 172° |
| 2026-05-01 14:26 | 12.83619 | 33.41024 | 38765 ft | 453 kts | 171° |
| 2026-05-01 14:27 | 12.77386 | 33.41985 | 38766 ft | 453 kts | 172° |
| 2026-05-01 14:27 | 12.71139 | 33.42924 | 38758 ft | 454 kts | 172° |
| 2026-05-01 14:28 | 12.61807 | 33.44327 | 38769 ft | 454 kts | 172° |
| 2026-05-01 14:28 | 12.55564 | 33.45269 | 38761 ft | 453 kts | 172° |
| 2026-05-01 14:29 | 12.49317 | 33.46151 | 38762 ft | 453 kts | 173° |
| 2026-05-01 14:30 | 12.36799 | 33.48099 | 38772 ft | 456 kts | 172° |
| 2026-05-01 14:31 | 12.27352 | 33.49537 | 38762 ft | 459 kts | 172° |
| 2026-05-01 14:31 | 12.21024 | 33.50497 | 38760 ft | 460 kts | 172° |
| 2026-05-01 14:32 | 12.14679 | 33.51453 | 38766 ft | 462 kts | 172° |
| 2026-05-01 14:32 | 12.08308 | 33.52416 | 38766 ft | 463 kts | 172° |
| 2026-05-01 14:33 | 12.01918 | 33.53377 | 38760 ft | 464 kts | 172° |
| 2026-05-01 14:33 | 11.95528 | 33.54339 | 38761 ft | 464 kts | 172° |
| 2026-05-01 14:34 | 11.89147 | 33.55319 | 38753 ft | 463 kts | 172° |
| 2026-05-01 14:34 | 11.82771 | 33.56212 | 38770 ft | 462 kts | 173° |
| 2026-05-01 14:35 | 11.76440 | 33.57152 | 38756 ft | 463 kts | 172° |
| 2026-05-01 14:35 | 11.70071 | 33.58150 | 38759 ft | 463 kts | 172° |
| 2026-05-01 14:36 | 11.63710 | 33.59123 | 38767 ft | 463 kts | 172° |
| 2026-05-01 14:36 | 11.57342 | 33.60112 | 38771 ft | 463 kts | 173° |
| 2026-05-01 14:37 | 11.50970 | 33.61065 | 38774 ft | 463 kts | 173° |
| 2026-05-01 14:37 | 11.44600 | 33.62004 | 38768 ft | 462 kts | 173° |
| 2026-05-01 14:38 | 11.38235 | 33.62949 | 38766 ft | 462 kts | 173° |
| 2026-05-01 14:38 | 11.31869 | 33.63905 | 38771 ft | 462 kts | 172° |
| 2026-05-01 14:39 | 11.25510 | 33.64854 | 38763 ft | 461 kts | 173° |
| 2026-05-01 14:39 | 11.19156 | 33.65796 | 38760 ft | 461 kts | 173° |
| 2026-05-01 14:40 | 11.12805 | 33.66745 | 38770 ft | 461 kts | 172° |
| 2026-05-01 14:40 | 11.06457 | 33.67703 | 38760 ft | 461 kts | 173° |
| 2026-05-01 14:41 | 11.00109 | 33.68660 | 38763 ft | 461 kts | 173° |
| 2026-05-01 14:41 | 10.93771 | 33.69613 | 38771 ft | 460 kts | 173° |
| 2026-05-01 14:42 | 10.87441 | 33.70562 | 38762 ft | 460 kts | 173° |
| 2026-05-01 14:42 | 10.81108 | 33.71503 | 38764 ft | 460 kts | 173° |
| 2026-05-01 14:43 | 10.74778 | 33.72447 | 38764 ft | 460 kts | 173° |
| 2026-05-01 14:43 | 10.68489 | 33.73383 | 38765 ft | 460 kts | 172° |
| 2026-05-01 14:44 | 10.62163 | 33.74329 | 38752 ft | 459 kts | 173° |
| 2026-05-01 14:44 | 10.52675 | 33.75743 | 38760 ft | 459 kts | 172° |
| 2026-05-01 14:45 | 10.43188 | 33.77164 | 38757 ft | 459 kts | 173° |
| 2026-05-01 14:46 | 10.36863 | 33.78106 | 38765 ft | 459 kts | 172° |
| 2026-05-01 14:46 | 10.27384 | 33.79530 | 38757 ft | 459 kts | 173° |
| 2026-05-01 14:47 | 10.21065 | 33.80477 | 38765 ft | 459 kts | 172° |
| 2026-05-01 14:48 | 10.11592 | 33.81885 | 38765 ft | 459 kts | 173° |
| 2026-05-01 14:48 | 10.02121 | 33.83308 | 38760 ft | 458 kts | 173° |
| 2026-05-01 14:49 | 9.89504 | 33.85193 | 38763 ft | 458 kts | 172° |
| 2026-05-01 14:50 | 9.77473 | 33.88662 | 38698 ft | 441 kts | 170° |
| 2026-05-01 14:51 | 9.74447 | 33.88966 | 38760 ft | 438 kts | 181° |
| 2026-05-01 14:51 | 9.68347 | 33.88874 | 38769 ft | 439 kts | 180° |
| 2026-05-01 14:52 | 9.59172 | 33.89705 | 38779 ft | 443 kts | 173° |
| 2026-05-01 14:53 | 9.49977 | 33.91081 | 38798 ft | 447 kts | 172° |
| 2026-05-01 14:53 | 9.43857 | 33.92008 | 38870 ft | 447 kts | 173° |
| 2026-05-01 14:53 | 9.40789 | 33.92469 | 38980 ft | 445 kts | 172° |
| 2026-05-01 14:54 | 9.37734 | 33.92927 | 39095 ft | 443 kts | 172° |
| 2026-05-01 14:54 | 9.34693 | 33.93378 | 39212 ft | 440 kts | 173° |
| 2026-05-01 14:54 | 9.31674 | 33.93853 | 39318 ft | 438 kts | 169° |
| 2026-05-01 14:54 | 9.28704 | 33.94516 | 39443 ft | 436 kts | 167° |
| 2026-05-01 14:55 | 9.25783 | 33.95306 | 39558 ft | 433 kts | 165° |
| 2026-05-01 14:55 | 9.22903 | 33.96139 | 39736 ft | 429 kts | 164° |
| 2026-05-01 14:55 | 9.20040 | 33.96974 | 39778 ft | 428 kts | 165° |
| 2026-05-01 14:56 | 9.14312 | 33.98611 | 39786 ft | 428 kts | 165° |
| 2026-05-01 14:56 | 9.08581 | 34.00219 | 39790 ft | 427 kts | 165° |
| 2026-05-01 14:57 | 9.02849 | 34.01820 | 39798 ft | 427 kts | 165° |
| 2026-05-01 14:57 | 8.94248 | 34.04217 | 39793 ft | 428 kts | 166° |
| 2026-05-01 14:58 | 8.88510 | 34.05813 | 39792 ft | 428 kts | 165° |
| 2026-05-01 14:58 | 8.82776 | 34.07414 | 39793 ft | 427 kts | 165° |
| 2026-05-01 14:59 | 8.77042 | 34.09019 | 39780 ft | 427 kts | 165° |
| 2026-05-01 14:59 | 8.71323 | 34.10570 | 39788 ft | 424 kts | 166° |
| 2026-05-01 15:00 | 8.63753 | 34.12663 | 39790 ft | 424 kts | 164° |
| 2026-05-01 15:01 | 8.58084 | 34.14277 | 39790 ft | 423 kts | 165° |
| 2026-05-01 15:01 | 8.51499 | 34.16122 | 39785 ft | 422 kts | 165° |
| 2026-05-01 15:02 | 8.46758 | 34.17441 | 39782 ft | 421 kts | 165° |
| 2026-05-01 15:02 | 8.41106 | 34.19010 | 39786 ft | 421 kts | 165° |
| 2026-05-01 15:03 | 8.35502 | 34.20564 | 39787 ft | 420 kts | 164° |
| 2026-05-01 15:03 | 8.29870 | 34.22130 | 39787 ft | 419 kts | 164° |
| 2026-05-01 15:04 | 8.24248 | 34.23690 | 39783 ft | 419 kts | 165° |
| 2026-05-01 15:04 | 8.18638 | 34.25248 | 39785 ft | 418 kts | 165° |
| 2026-05-01 15:05 | 8.13040 | 34.26801 | 39787 ft | 417 kts | 164° |
| 2026-05-01 15:05 | 8.07454 | 34.28350 | 39788 ft | 416 kts | 164° |
| 2026-05-01 15:06 | 8.01880 | 34.29883 | 39785 ft | 415 kts | 164° |
| 2026-05-01 15:06 | 7.96329 | 34.31400 | 39788 ft | 413 kts | 164° |
| 2026-05-01 15:07 | 7.90786 | 34.32915 | 39788 ft | 412 kts | 164° |
| 2026-05-01 15:07 | 7.85264 | 34.34422 | 39791 ft | 410 kts | 164° |
| 2026-05-01 15:08 | 7.79764 | 34.35923 | 39789 ft | 409 kts | 164° |
| 2026-05-01 15:08 | 7.74289 | 34.37420 | 39791 ft | 407 kts | 164° |
| 2026-05-01 15:09 | 7.68840 | 34.38913 | 39789 ft | 405 kts | 164° |
| 2026-05-01 15:09 | 7.63420 | 34.40390 | 39792 ft | 402 kts | 164° |
| 2026-05-01 15:10 | 7.58033 | 34.41857 | 39792 ft | 400 kts | 164° |
| 2026-05-01 15:10 | 7.50055 | 34.44033 | 39797 ft | 396 kts | 164° |
| 2026-05-01 15:11 | 7.42133 | 34.46196 | 39798 ft | 391 kts | 164° |
| 2026-05-01 15:12 | 7.36902 | 34.47620 | 39797 ft | 388 kts | 164° |
| 2026-05-01 15:12 | 7.29170 | 34.49646 | 39799 ft | 378 kts | 161° |
| 2026-05-01 15:14 | 7.16624 | 34.53142 | 39811 ft | 371 kts | 163° |
| 2026-05-01 15:14 | 7.14115 | 34.53825 | 38747 ft | 387 kts | 164° |
| 2026-05-01 15:14 | 7.08778 | 34.55112 | 37846 ft | 395 kts | 165° |
| 2026-05-01 15:15 | 6.98191 | 34.58125 | 37828 ft | 395 kts | 163° |
| 2026-05-01 15:16 | 6.87562 | 34.61042 | 37822 ft | 396 kts | 163° |
| 2026-05-01 15:18 | 6.74242 | 34.64670 | 37845 ft | 397 kts | 164° |
| 2026-05-01 15:19 | 6.63497 | 34.67566 | 37429 ft | 410 kts | 165° |
| 2026-05-01 15:19 | 6.57867 | 34.69056 | 36878 ft | 428 kts | 164° |
| 2026-05-01 15:19 | 6.54958 | 34.69824 | 36605 ft | 437 kts | 165° |
| 2026-05-01 15:20 | 6.48971 | 34.71385 | 36077 ft | 449 kts | 165° |
| 2026-05-01 15:20 | 6.45946 | 34.72184 | 35907 ft | 450 kts | 165° |
| 2026-05-01 15:21 | 6.39885 | 34.73787 | 35866 ft | 451 kts | 165° |
| 2026-05-01 15:21 | 6.33820 | 34.75403 | 35870 ft | 451 kts | 165° |
| 2026-05-01 15:22 | 6.24710 | 34.77771 | 35882 ft | 451 kts | 164° |
| 2026-05-01 15:22 | 6.18690 | 34.79391 | 35881 ft | 451 kts | 163° |
| 2026-05-01 15:23 | 6.12622 | 34.80990 | 35884 ft | 451 kts | 164° |
| 2026-05-01 15:23 | 6.06549 | 34.82570 | 35884 ft | 451 kts | 164° |
| 2026-05-01 15:24 | 6.00478 | 34.84160 | 35889 ft | 451 kts | 164° |
| 2026-05-01 15:24 | 5.94413 | 34.85753 | 35904 ft | 451 kts | 164° |
| 2026-05-01 15:25 | 5.88342 | 34.87351 | 35903 ft | 451 kts | 164° |
| 2026-05-01 15:25 | 5.82287 | 34.88924 | 35904 ft | 451 kts | 165° |
| 2026-05-01 15:26 | 5.76204 | 34.90499 | 35910 ft | 451 kts | 164° |
| 2026-05-01 15:26 | 5.70135 | 34.92118 | 35908 ft | 451 kts | 164° |
| 2026-05-01 15:27 | 5.64070 | 34.93724 | 35908 ft | 451 kts | 164° |
| 2026-05-01 15:28 | 5.54970 | 34.96115 | 35913 ft | 450 kts | 163° |
| 2026-05-01 15:28 | 5.48905 | 34.97707 | 35901 ft | 451 kts | 163° |
| 2026-05-01 15:29 | 5.39800 | 35.00096 | 35906 ft | 451 kts | 164° |
| 2026-05-01 15:30 | 5.27705 | 35.03298 | 35894 ft | 452 kts | 163° |
| 2026-05-01 15:31 | 5.09495 | 35.08271 | 35879 ft | 452 kts | 163° |
| 2026-05-01 15:32 | 4.97355 | 35.11583 | 35875 ft | 452 kts | 163° |
| 2026-05-01 15:34 | 4.79034 | 35.16564 | 35885 ft | 455 kts | 163° |